createdAt,value
2023-05-31T00:00:09.260Z,3.6
2023-05-31T00:02:11.294Z,3.6
2023-05-31T00:04:16.514Z,4.2
2023-05-31T00:06:18.510Z,4.7
2023-05-31T00:08:20.501Z,3.4
2023-05-31T00:10:22.534Z,3.3
2023-05-31T00:12:24.517Z,3
2023-05-31T00:14:26.531Z,4.3
2023-05-31T00:20:35.940Z,3.9
2023-05-31T00:32:51.042Z,3.1
2023-05-31T00:34:53.025Z,4.8
2023-05-31T00:38:57.037Z,3.7
2023-05-31T00:40:59.357Z,4.1
2023-05-31T00:43:01.045Z,4.9
2023-05-31T00:47:08.266Z,3.5
2023-05-31T00:55:43.108Z,4.6
2023-05-31T01:07:58.393Z,4.5
2023-05-31T01:10:00.373Z,3.5
2023-05-31T01:12:02.385Z,3
2023-05-31T01:14:07.666Z,3.8
2023-05-31T01:16:09.682Z,5.2
2023-05-31T01:30:26.906Z,4.3
2023-05-31T01:32:28.885Z,3.9
2023-05-31T01:34:30.923Z,4.3
2023-05-31T01:36:32.847Z,4.5
2023-05-31T01:40:36.904Z,3
2023-05-31T01:42:42.077Z,5.3
2023-05-31T01:44:44.072Z,4.3
2023-05-31T01:46:46.069Z,4
2023-05-31T01:47:48.761Z,5
2023-05-31T01:49:50.698Z,4
2023-05-31T01:51:52.690Z,4.3
2023-05-31T01:53:54.712Z,3.7
2023-05-31T01:55:59.929Z,5.4
2023-05-31T01:58:01.952Z,5.4
2023-05-31T02:00:03.969Z,3.7
2023-05-31T02:02:05.922Z,3.6
2023-05-31T02:04:07.959Z,4.3
2023-05-31T02:08:11.938Z,5
2023-05-31T02:10:17.187Z,4.2
2023-05-31T02:12:19.190Z,4.6
2023-05-31T02:16:23.189Z,4.1
2023-05-31T02:43:58.255Z,5.7
2023-05-31T02:46:00.259Z,3.8
2023-05-31T02:48:02.276Z,4.4
2023-05-31T02:50:04.284Z,5.5
2023-05-31T02:52:09.484Z,5.5
2023-05-31T02:54:11.446Z,5.1
2023-05-31T02:58:15.493Z,4.2
2023-05-31T03:00:17.461Z,4.7
2023-05-31T03:08:28.725Z,4.9
2023-05-31T03:14:34.702Z,5.2
2023-05-31T03:22:45.932Z,5.3
2023-05-31T03:35:01.132Z,4.4
2023-05-31T03:37:03.129Z,5.3
2023-05-31T03:39:05.143Z,5.9
2023-05-31T03:40:07.786Z,5.9
2023-05-31T03:42:09.746Z,4.9
2023-05-31T03:44:11.732Z,4.7
2023-05-31T03:46:13.795Z,7.6
2023-05-31T03:48:18.935Z,6.4
2023-05-31T03:50:20.929Z,5.4
2023-05-31T03:52:22.923Z,5.6
2023-05-31T03:54:24.947Z,5.7
2023-05-31T03:56:26.925Z,5.5
2023-05-31T03:58:28.945Z,5.6
2023-05-31T04:00:30.930Z,5.9
2023-05-31T04:02:36.267Z,7.5
2023-05-31T04:04:38.217Z,6.6
2023-05-31T04:06:40.123Z,6.7
2023-05-31T04:08:42.118Z,6.4
2023-05-31T04:10:44.111Z,6
2023-05-31T04:16:53.305Z,6
2023-05-31T04:18:55.321Z,5.5
2023-05-31T04:20:57.356Z,7
2023-05-31T04:37:43.409Z,6.9
2023-05-31T04:39:45.403Z,6.9
2023-05-31T04:41:47.407Z,6.3
2023-05-31T04:43:52.601Z,6.6
2023-05-31T04:45:54.632Z,6.9
2023-05-31T04:47:56.685Z,6.8
2023-05-31T04:49:58.586Z,6.3
2023-05-31T04:52:00.669Z,7.4
2023-05-31T04:54:02.619Z,6.9
2023-05-31T04:56:04.683Z,6.3
2023-05-31T04:58:09.846Z,7.9
2023-05-31T05:00:11.836Z,8.7
2023-05-31T05:02:13.839Z,6.8
2023-05-31T05:04:15.818Z,7.2
2023-05-31T05:06:17.824Z,8.3
2023-05-31T05:08:20.259Z,6.9
2023-05-31T05:10:21.790Z,7.5
2023-05-31T05:12:27.505Z,7.2
2023-05-31T05:14:29.489Z,7.4
2023-05-31T05:16:31.541Z,7
2023-05-31T05:22:37.494Z,6.1
2023-05-31T05:31:51.392Z,7.3
2023-05-31T05:33:53.384Z,6.9
2023-05-31T05:35:55.409Z,7.5
2023-05-31T05:37:57.426Z,6.6
2023-05-31T05:40:02.642Z,7.1
2023-05-31T05:42:04.652Z,6.5
2023-05-31T05:44:06.681Z,8
2023-05-31T05:46:08.716Z,7
2023-05-31T05:48:10.742Z,5.9
2023-05-31T05:50:12.676Z,6.7
2023-05-31T05:52:14.681Z,6.9
2023-05-31T05:54:19.931Z,7
2023-05-31T05:58:23.945Z,7
2023-05-31T06:00:25.979Z,7.8
2023-05-31T06:04:30.002Z,7.1
2023-05-31T06:10:39.145Z,8
2023-05-31T06:12:41.059Z,7.1
2023-05-31T06:14:43.072Z,6.4
2023-05-31T06:28:00.471Z,7.5
2023-05-31T06:30:02.396Z,6.6
2023-05-31T06:32:04.474Z,7
2023-05-31T06:34:06.172Z,6.9
2023-05-31T06:36:11.174Z,5.8
2023-05-31T06:38:13.081Z,9.1
2023-05-31T06:40:15.035Z,6
2023-05-31T06:42:16.860Z,7.6
2023-05-31T06:44:18.786Z,6.2
2023-05-31T06:46:20.681Z,7
2023-05-31T06:48:22.647Z,7.8
2023-05-31T06:52:29.516Z,6.6
2023-05-31T06:58:35.197Z,7.3
2023-05-31T07:02:38.972Z,6.9
2023-05-31T07:04:44.014Z,6.4
2023-05-31T07:06:45.865Z,7.1
2023-05-31T07:08:47.799Z,6.6
2023-05-31T07:10:49.686Z,6.1
2023-05-31T07:12:51.564Z,7.2
2023-05-31T07:14:53.497Z,6.3
2023-05-31T07:16:55.369Z,5.3
2023-05-31T07:19:00.386Z,6.4
2023-05-31T07:21:02.618Z,7.4
2023-05-31T07:24:06.684Z,7.1
2023-05-31T07:32:17.386Z,6.8
2023-05-31T07:34:19.321Z,7.1
2023-05-31T07:36:21.133Z,6.1
2023-05-31T07:38:23.025Z,5.3
2023-05-31T07:42:26.796Z,6.4
2023-05-31T07:52:39.367Z,6.6
2023-05-31T08:17:08.084Z,5.7
2023-05-31T08:21:38.446Z,6.3
2023-05-31T08:35:54.577Z,5.4
2023-05-31T08:37:56.448Z,6.7
2023-05-31T08:39:58.284Z,9.7
2023-05-31T08:42:03.242Z,6.4
2023-05-31T08:48:08.803Z,7.3
2023-05-31T08:52:12.456Z,6.1
2023-05-31T08:54:14.264Z,6.5
2023-05-31T08:56:19.266Z,5.7
2023-05-31T08:58:21.080Z,6.9
2023-05-31T09:00:22.908Z,6.4
2023-05-31T09:02:24.871Z,5.6
2023-05-31T09:04:26.565Z,5.5
2023-05-31T09:08:30.217Z,5.3
2023-05-31T09:10:35.203Z,6.5
2023-05-31T09:12:36.992Z,7.3
2023-05-31T09:14:38.828Z,6.7
2023-05-31T09:15:41.310Z,6.6
2023-05-31T09:17:44.228Z,8
2023-05-31T09:19:45.984Z,5.7
2023-05-31T09:21:47.878Z,6.4
2023-05-31T09:23:52.784Z,5.1
2023-05-31T09:25:54.590Z,4.8
2023-05-31T09:27:56.414Z,6.1
2023-05-31T09:29:58.186Z,5.8
2023-05-31T09:32:00.113Z,4.6
2023-05-31T09:34:01.770Z,6
2023-05-31T09:36:03.582Z,6.5
2023-05-31T09:38:08.544Z,6.2
2023-05-31T09:42:12.142Z,5.3
2023-05-31T09:58:29.711Z,5.3
2023-05-31T10:00:31.510Z,4.7
2023-05-31T10:02:33.336Z,3.4
2023-05-31T10:04:35.131Z,5.6
2023-05-31T10:06:40.066Z,4.5
2023-05-31T10:11:46.180Z,5
2023-05-31T10:13:47.914Z,5
2023-05-31T10:15:49.812Z,4.7
2023-05-31T10:17:51.650Z,3.5
2023-05-31T10:19:56.474Z,5
2023-05-31T10:21:58.290Z,5.3
2023-05-31T10:24:00.076Z,5
2023-05-31T10:26:01.885Z,4.2
2023-05-31T10:30:05.472Z,4
2023-05-31T10:32:07.256Z,4.4
2023-05-31T10:34:12.201Z,4.1
2023-05-31T10:36:13.975Z,4.3
2023-05-31T10:38:15.795Z,3.4
2023-05-31T10:40:17.563Z,4.1
2023-05-31T10:42:19.379Z,5
2023-05-31T10:44:21.136Z,3.9
2023-05-31T10:48:27.874Z,4.1
2023-05-31T10:54:33.197Z,4.4
2023-05-31T10:56:34.982Z,3.4
2023-05-31T10:58:36.759Z,4.2
2023-05-31T11:02:45.089Z,3.6
2023-05-31T11:07:51.025Z,3.6
2023-05-31T11:09:52.810Z,3.1
2023-05-31T11:11:54.589Z,3.1
2023-05-31T11:13:56.384Z,3.9
2023-05-31T11:16:01.320Z,4.4
2023-05-31T11:20:04.880Z,3.4
2023-05-31T11:22:06.604Z,3.8
2023-05-31T11:24:08.386Z,3.4
2023-05-31T11:26:10.156Z,3.5
2023-05-31T11:28:11.922Z,3.1
2023-05-31T11:30:16.890Z,4.1
2023-05-31T11:32:18.686Z,3.7
2023-05-31T11:34:20.399Z,4.4
2023-05-31T11:54:41.298Z,2.9
2023-05-31T11:56:43.043Z,2.9
2023-05-31T12:00:49.760Z,4.2
2023-05-31T12:02:51.580Z,3.6
2023-05-31T12:05:19.929Z,2.4
2023-05-31T12:07:21.676Z,3.3
2023-05-31T12:09:23.440Z,2.8
2023-05-31T12:11:28.376Z,4
2023-05-31T12:13:30.117Z,3.2
2023-05-31T12:19:35.384Z,3.5
2023-05-31T12:21:37.140Z,3.7
2023-05-31T12:23:38.869Z,3.4
2023-05-31T12:25:43.809Z,3.1
2023-05-31T12:27:46.661Z,2.6
2023-05-31T12:29:47.332Z,3.2
2023-05-31T12:31:49.154Z,3.5
2023-05-31T12:33:50.830Z,3.2
2023-05-31T12:42:01.048Z,3.5
2023-05-31T12:44:02.758Z,3.1
2023-05-31T12:46:04.549Z,2.4
2023-05-31T12:50:08.354Z,3
2023-05-31T12:52:09.791Z,2.7
2023-05-31T12:54:14.695Z,3.5
2023-05-31T12:58:18.200Z,3.4
2023-05-31T12:59:20.663Z,2.9
2023-05-31T13:07:30.819Z,2.4
2023-05-31T13:15:37.787Z,2.3
2023-05-31T13:17:39.596Z,2.7
2023-05-31T13:19:43.050Z,3.3
2023-05-31T13:21:46.238Z,2.7
2023-05-31T13:23:47.959Z,3.4
2023-05-31T13:25:49.670Z,2.1
2023-05-31T13:27:51.407Z,2.6
2023-05-31T13:29:53.197Z,2.8
2023-05-31T13:31:54.987Z,3.7
2023-05-31T13:48:12.054Z,3.6
2023-05-31T13:50:16.920Z,3.2
2023-05-31T13:52:18.669Z,2.9
2023-05-31T13:55:22.847Z,3
2023-05-31T13:57:24.562Z,5.1
2023-05-31T14:01:28.097Z,3.2
2023-05-31T14:03:33.096Z,2.5
2023-05-31T14:05:34.702Z,3.1
2023-05-31T14:21:51.730Z,2.6
2023-05-31T14:25:55.129Z,3.7
2023-05-31T14:27:56.794Z,7.4
2023-05-31T14:29:58.497Z,7
2023-05-31T14:32:03.438Z,4.3
2023-05-31T14:34:05.077Z,2.9
2023-05-31T14:36:06.744Z,3.1
2023-05-31T14:51:24.095Z,2.5
2023-05-31T14:53:25.789Z,3.3
2023-05-31T14:55:27.434Z,2
2023-05-31T14:57:29.126Z,3.2
2023-05-31T14:59:33.993Z,2.7
2023-05-31T15:01:35.649Z,4
2023-05-31T15:03:37.470Z,3.3
2023-05-31T15:05:39.034Z,3.3
2023-05-31T15:07:40.695Z,2.3
2023-05-31T15:09:42.386Z,2.9
2023-05-31T15:11:44.035Z,2.8
2023-05-31T15:13:48.878Z,2.3
2023-05-31T15:15:50.593Z,3.7
2023-05-31T15:17:52.285Z,3.3
2023-05-31T15:19:53.930Z,4.8
2023-05-31T15:21:55.647Z,3.9
2023-05-31T15:25:58.880Z,4
2023-05-31T15:28:03.766Z,3.8
2023-05-31T15:30:05.485Z,3
2023-05-31T15:32:07.180Z,3.4
2023-05-31T15:48:50.205Z,3.2
2023-05-31T15:50:51.858Z,3.5
2023-05-31T15:52:53.536Z,2.7
2023-05-31T15:54:58.415Z,3.5
2023-05-31T15:57:00.052Z,2.9
2023-05-31T15:59:01.714Z,2.9
2023-05-31T16:01:03.605Z,2.7
2023-05-31T16:03:05.144Z,3.5
2023-05-31T16:05:06.679Z,2.7
2023-05-31T16:07:08.373Z,2
2023-05-31T16:09:13.227Z,3.5
2023-05-31T16:13:16.561Z,3.5
2023-05-31T16:15:18.225Z,3.1
2023-05-31T16:17:20.085Z,6.6
2023-05-31T16:19:21.579Z,3.7
2023-05-31T16:21:23.343Z,2.8
2023-05-31T16:23:28.111Z,2.4
2023-05-31T16:25:29.813Z,2.8
2023-05-31T16:39:44.792Z,5.5
2023-05-31T16:42:48.896Z,5.5
2023-05-31T16:44:50.628Z,3.1
2023-05-31T16:46:52.388Z,3.1
2023-05-31T16:48:53.996Z,2.3
2023-05-31T16:50:58.922Z,3.3
2023-05-31T16:55:03.871Z,2.8
2023-05-31T16:57:05.548Z,3.6
2023-05-31T17:09:19.106Z,2.1
2023-05-31T17:11:20.896Z,3.1
2023-05-31T17:15:24.359Z,2.1
2023-05-31T17:21:32.831Z,2.1
2023-05-31T17:25:36.288Z,2.7
2023-05-31T17:27:38.078Z,2.1
2023-05-31T17:31:41.622Z,2.2
2023-05-31T17:40:54.308Z,4
2023-05-31T17:42:56.050Z,10.2
2023-05-31T17:44:57.852Z,2.8
2023-05-31T17:47:02.758Z,2.8
2023-05-31T17:49:04.616Z,4.2
2023-05-31T17:57:11.676Z,6.3
2023-05-31T18:05:21.967Z,4.1
2023-05-31T18:11:27.291Z,4.9
2023-05-31T18:15:34.072Z,3.5
2023-05-31T18:17:35.854Z,4.1
2023-05-31T18:19:37.691Z,2.6
2023-05-31T18:21:39.461Z,3.3
2023-05-31T18:27:44.837Z,2.6
2023-05-31T18:31:51.791Z,2.5
2023-05-31T18:33:53.416Z,3.1
2023-05-31T18:34:55.904Z,2.6
2023-05-31T18:36:57.725Z,3.5
2023-05-31T18:41:01.493Z,3.3
2023-05-31T18:45:08.132Z,2.6
2023-05-31T18:47:10.106Z,3.4
2023-05-31T18:51:13.582Z,2.6
2023-05-31T18:53:15.395Z,2.9
2023-05-31T18:57:22.206Z,4.4
2023-05-31T18:59:23.912Z,2.1
2023-05-31T19:01:25.886Z,1.8
2023-05-31T19:05:29.435Z,3.2
2023-05-31T19:09:33.064Z,2.8
2023-05-31T19:11:38.076Z,2.4
2023-05-31T19:13:39.943Z,2.8
2023-05-31T19:15:41.743Z,2.8
2023-05-31T19:17:43.703Z,2.7
2023-05-31T19:19:45.460Z,2.7
2023-05-31T19:21:47.333Z,3.2
2023-05-31T19:23:49.186Z,2.6
2023-05-31T19:32:26.467Z,3.8
2023-05-31T19:34:28.296Z,3.1
2023-05-31T19:38:35.209Z,4.4
2023-05-31T19:40:36.970Z,3.6
2023-05-31T19:42:38.835Z,3.2
2023-05-31T19:44:40.715Z,3.5
2023-05-31T19:48:44.419Z,3.8
2023-05-31T19:50:46.325Z,5.9
2023-05-31T19:54:53.188Z,3.4
2023-05-31T19:56:55.074Z,4
2023-05-31T20:00:58.844Z,4.2
2023-05-31T20:15:15.140Z,5.6
2023-05-31T20:17:17.021Z,5
2023-05-31T20:21:23.997Z,5
2023-05-31T20:23:25.807Z,5.3
2023-05-31T20:25:27.682Z,5.3
2023-05-31T20:26:30.183Z,4.4
2023-05-31T20:32:35.898Z,5.2
2023-05-31T20:34:40.871Z,5.6
2023-05-31T20:36:42.734Z,5.4
2023-05-31T20:40:46.527Z,6.6
2023-05-31T20:42:48.355Z,5.8
2023-05-31T20:44:50.229Z,6
2023-05-31T20:46:52.278Z,6.6
2023-05-31T20:48:57.140Z,5.7
2023-05-31T20:50:59.080Z,7.6
2023-05-31T20:55:02.812Z,6.2
2023-05-31T20:57:04.732Z,6.5
2023-05-31T20:59:06.621Z,6.7
2023-05-31T21:01:08.537Z,6.4
2023-05-31T21:03:13.675Z,7.1
2023-05-31T21:07:17.336Z,5.6
2023-05-31T21:09:19.194Z,6.8
2023-05-31T21:13:23.012Z,5.2
2023-05-31T21:15:24.938Z,7.5
2023-05-31T21:17:29.966Z,7.8
2023-05-31T21:20:03.222Z,7.3
2023-05-31T21:21:33.732Z,6.2
2023-05-31T21:22:36.244Z,6.5
2023-05-31T21:24:38.165Z,7
2023-05-31T21:26:40.026Z,6.7
2023-05-31T21:28:41.942Z,5.5
2023-05-31T21:30:47.002Z,7
2023-05-31T21:32:48.971Z,6.5
2023-05-31T21:34:50.801Z,5.8
2023-05-31T21:36:52.826Z,6.5
2023-05-31T21:38:54.820Z,7.8
2023-05-31T21:40:56.799Z,6.2
2023-05-31T21:42:58.819Z,6.1
2023-05-31T21:45:04.028Z,6.5
2023-05-31T21:47:06.119Z,6.6
2023-05-31T21:49:08.090Z,5.9
2023-05-31T21:51:10.157Z,6.3
2023-05-31T21:53:12.108Z,6.9
2023-05-31T21:55:14.120Z,6.6
2023-05-31T21:57:16.107Z,6.6
2023-05-31T21:59:21.346Z,6.3
2023-05-31T22:01:23.451Z,6.5
2023-05-31T22:15:40.670Z,8.1
2023-05-31T22:20:47.300Z,8
2023-05-31T22:22:49.318Z,7.1
2023-05-31T22:26:56.559Z,8.2
2023-05-31T22:33:02.600Z,7.3
2023-05-31T22:35:04.592Z,8.3
2023-05-31T22:41:13.831Z,7.1
2023-05-31T22:43:15.814Z,7.8
2023-05-31T22:45:19.373Z,6.6
2023-05-31T22:49:23.346Z,7.2
2023-05-31T22:51:25.363Z,7.2
2023-05-31T22:53:27.382Z,6.8
2023-05-31T22:55:32.601Z,7.3
2023-05-31T22:57:34.624Z,7.1
2023-05-31T23:01:38.614Z,5.8
2023-05-31T23:05:42.652Z,6
2023-05-31T23:09:49.889Z,6.2
2023-05-31T23:16:22.815Z,6.2
2023-05-31T23:18:24.840Z,5.4
2023-05-31T23:20:26.820Z,6.4
2023-05-31T23:22:32.062Z,6.7
2023-05-31T23:24:34.077Z,6.2
2023-05-31T23:28:38.075Z,5.9
2023-05-31T23:30:40.084Z,5.5
2023-05-31T23:32:42.135Z,4.8
2023-05-31T23:34:44.080Z,5.4
2023-05-31T23:38:51.295Z,5.2
2023-05-31T23:40:53.280Z,5.7
2023-05-31T23:44:57.289Z,5.6
2023-05-31T23:46:59.259Z,5
